Terminal Aerodrome Forecast
Issued by NWS Pittsburgh, PA

Home | Current Version | Previous Version | Text Only | Print | Product List | Glossary On
Versions: 1 2 3 4 5 6 7 8 9 10 11 12 13 14 15 16 17 18 19 20 21 22 23 24 25
000
FTUS41 KPBZ 130900 AAA
TAFPIT
TAF AMD
KPIT 130902Z 1309/1412 19005KT P6SM BKN120
     FM131000 21010KT 6SM -SHRA BKN060
     FM131100 21010KT P6SM BKN100
     FM132000 21010KT 6SM -SHRA OVC040 PROB30 1320/1323 3SM TSRA
      OVC040CB=

USA.gov is the U.S. government's official web portal to all federal, state and local government web resources and services.